createdAt,value
2022-12-02T00:02:16.592Z,13.15
2022-12-02T00:04:43.577Z,12.13
2022-12-02T00:07:19.383Z,13.75
2022-12-02T00:09:46.637Z,12.93
2022-12-02T00:12:21.065Z,12.60
2022-12-02T00:14:55.698Z,11.15
2022-12-02T00:17:23.135Z,10.25
2022-12-02T00:19:50.466Z,11.32
2022-12-02T00:22:17.415Z,10.75
2022-12-02T00:24:44.559Z,10.80
2022-12-02T00:27:11.954Z,10.38
2022-12-02T00:29:38.902Z,10.40
2022-12-02T00:32:06.258Z,10.85
2022-12-02T00:34:33.295Z,10.85
2022-12-02T00:37:00.369Z,10.48
2022-12-02T00:39:27.370Z,11.02
2022-12-02T00:41:54.549Z,10.77
2022-12-02T00:44:40.307Z,10.65
2022-12-02T00:47:07.264Z,12.25
2022-12-02T00:49:34.226Z,11.85
2022-12-02T00:52:01.166Z,11.18
2022-12-02T00:54:28.131Z,11.52
2022-12-02T00:56:55.132Z,12.20
2022-12-02T00:59:23.056Z,12.35
2022-12-02T01:01:50.070Z,12.50
2022-12-02T01:04:17.132Z,12.07
2022-12-02T01:06:44.150Z,12.13
2022-12-02T01:09:11.168Z,11.98
2022-12-02T01:11:38.117Z,11.95
2022-12-02T01:14:05.164Z,12.38
2022-12-02T01:16:32.337Z,12.52
2022-12-02T01:18:59.347Z,11.90
2022-12-02T01:21:26.523Z,12.00
2022-12-02T01:23:53.524Z,12.38
2022-12-02T01:26:20.527Z,10.23
2022-12-02T01:28:47.510Z,11.63
2022-12-02T01:31:15.320Z,11.38
2022-12-02T01:33:42.569Z,11.15
2022-12-02T01:36:09.755Z,11.32
2022-12-02T01:38:36.904Z,12.95
2022-12-02T01:41:04.852Z,11.88
2022-12-02T01:43:32.205Z,11.43
2022-12-02T01:45:59.456Z,12.82
2022-12-02T01:48:27.255Z,11.98
2022-12-02T01:50:54.249Z,11.43
2022-12-02T01:53:21.785Z,11.88
2022-12-02T01:55:48.883Z,12.73
2022-12-02T01:58:18.065Z,12.00
2022-12-02T02:00:45.092Z,10.50
2022-12-02T02:03:12.025Z,10.82
2022-12-02T02:05:39.184Z,10.70
2022-12-02T02:08:09.143Z,10.50
2022-12-02T02:10:38.043Z,10.65
2022-12-02T02:13:06.986Z,10.15
2022-12-02T02:15:34.460Z,10.10
2022-12-02T02:18:05.204Z,9.43
2022-12-02T02:20:35.073Z,8.43
2022-12-02T02:23:05.874Z,8.68
2022-12-02T02:25:40.797Z,9.18
2022-12-02T02:28:09.523Z,8.52
2022-12-02T02:30:37.754Z,8.90
2022-12-02T02:33:07.696Z,8.90
2022-12-02T02:35:37.070Z,9.27
2022-12-02T02:38:07.581Z,8.35
2022-12-02T02:40:35.935Z,9.43
2022-12-02T02:45:34.686Z,8.40
2022-12-02T02:48:06.732Z,9.07
2022-12-02T02:50:36.332Z,8.32
2022-12-02T02:53:05.252Z,8.80
2022-12-02T02:55:34.328Z,9.20
2022-12-02T02:58:21.471Z,9.00
2022-12-02T03:01:12.073Z,8.32
2022-12-02T03:03:42.861Z,9.07
2022-12-02T03:06:11.477Z,9.90
2022-12-02T03:08:42.684Z,10.15
2022-12-02T03:11:11.240Z,9.95
2022-12-02T03:13:40.126Z,10.88
2022-12-02T03:16:10.151Z,11.15
2022-12-02T03:18:38.884Z,10.50
2022-12-02T03:23:33.553Z,10.85
2022-12-02T03:26:02.932Z,11.07
2022-12-02T03:28:30.124Z,10.73
2022-12-02T03:30:57.489Z,10.90
2022-12-02T03:33:25.452Z,11.10
2022-12-02T03:35:52.497Z,10.43
2022-12-02T03:38:19.507Z,9.95
2022-12-02T03:40:47.523Z,10.02
2022-12-02T03:43:14.902Z,10.38
2022-12-02T03:45:43.238Z,10.95
2022-12-02T03:48:12.097Z,10.65
2022-12-02T03:50:40.839Z,10.48
2022-12-02T03:53:07.877Z,10.48
2022-12-02T03:55:35.633Z,11.93
2022-12-02T03:58:07.714Z,11.87
2022-12-02T04:00:36.284Z,12.30
2022-12-02T04:05:30.734Z,14.00
2022-12-02T04:07:57.827Z,13.45
2022-12-02T04:10:24.911Z,14.07
2022-12-02T04:12:51.921Z,14.05
2022-12-02T04:15:18.873Z,14.50
2022-12-02T04:17:45.884Z,13.60
2022-12-02T04:20:13.334Z,12.95
2022-12-02T04:22:40.408Z,13.07
2022-12-02T04:25:07.714Z,14.23
2022-12-02T04:27:35.008Z,13.93
2022-12-02T04:30:02.032Z,14.18
2022-12-02T04:32:29.060Z,15.02
2022-12-02T04:34:56.116Z,15.05
2022-12-02T04:37:23.138Z,14.63
2022-12-02T04:39:50.160Z,14.70
2022-12-02T04:42:17.129Z,14.38
2022-12-02T04:44:44.200Z,14.13
2022-12-02T04:47:11.201Z,13.45
2022-12-02T04:49:38.279Z,13.52
2022-12-02T04:52:05.378Z,13.43
2022-12-02T04:54:32.424Z,13.32
2022-12-02T04:56:59.412Z,12.55
2022-12-02T04:59:26.458Z,11.38
2022-12-02T05:01:53.489Z,12.40
2022-12-02T05:04:20.638Z,11.80
2022-12-02T05:06:47.687Z,13.38
2022-12-02T05:09:14.719Z,13.55
2022-12-02T05:11:41.830Z,13.88
2022-12-02T05:14:08.906Z,14.30
2022-12-02T05:16:36.073Z,13.10
2022-12-02T05:19:03.259Z,13.98
2022-12-02T05:21:30.248Z,13.98
2022-12-02T05:23:57.234Z,13.40
2022-12-02T05:26:24.559Z,14.80
2022-12-02T05:28:51.528Z,13.93
2022-12-02T05:31:18.562Z,12.80
2022-12-02T05:33:45.659Z,14.38
2022-12-02T05:36:13.051Z,14.40
2022-12-02T05:38:40.659Z,13.52
2022-12-02T05:41:08.329Z,14.63
2022-12-02T05:43:39.848Z,12.93
2022-12-02T05:46:19.225Z,14.80
2022-12-02T05:48:48.576Z,13.95
2022-12-02T05:51:18.185Z,12.73
2022-12-02T05:53:46.872Z,12.82
2022-12-02T05:56:26.474Z,12.32
2022-12-02T05:58:59.833Z,11.65
2022-12-02T06:01:33.340Z,9.77
2022-12-02T06:04:00.467Z,10.00
2022-12-02T06:06:33.558Z,10.00
2022-12-02T06:09:00.870Z,10.20
2022-12-02T06:11:34.551Z,10.07
2022-12-02T06:14:06.711Z,10.23
2022-12-02T06:16:35.031Z,9.85
2022-12-02T06:19:07.725Z,10.38
2022-12-02T06:21:34.749Z,10.55
2022-12-02T06:24:02.037Z,9.90
2022-12-02T06:26:28.964Z,10.00
2022-12-02T06:29:02.168Z,10.77
2022-12-02T06:31:37.330Z,10.13
2022-12-02T06:34:27.599Z,11.32
2022-12-02T06:36:57.421Z,10.20
2022-12-02T06:39:25.076Z,10.38
2022-12-02T06:41:54.700Z,9.70
2022-12-02T06:44:42.192Z,11.23
2022-12-02T06:47:33.966Z,9.60
2022-12-02T06:50:07.073Z,10.10
2022-12-02T06:52:38.321Z,9.73
2022-12-02T06:55:32.191Z,10.15
2022-12-02T06:58:32.756Z,9.65
2022-12-02T07:03:44.655Z,11.30
2022-12-02T07:06:22.057Z,12.00
2022-12-02T07:08:49.166Z,11.50
2022-12-02T07:11:47.247Z,10.18
2022-12-02T07:14:37.782Z,10.65
2022-12-02T07:17:32.498Z,10.80
2022-12-02T07:20:11.315Z,9.93
2022-12-02T07:22:46.278Z,10.43
2022-12-02T07:25:16.263Z,10.43
2022-12-02T07:27:46.689Z,9.30
2022-12-02T07:30:40.562Z,9.68
2022-12-02T07:33:07.576Z,9.98
2022-12-02T07:35:34.652Z,11.93
2022-12-02T07:38:01.556Z,10.07
2022-12-02T07:40:29.284Z,10.93
2022-12-02T07:42:56.231Z,11.15
2022-12-02T07:45:23.192Z,11.65
2022-12-02T07:47:51.085Z,12.20
2022-12-02T07:50:18.538Z,12.77
2022-12-02T07:52:45.505Z,11.95
2022-12-02T07:55:12.580Z,12.40
2022-12-02T07:57:39.629Z,12.77
2022-12-02T08:00:09.032Z,13.30
2022-12-02T08:02:42.387Z,11.85
2022-12-02T08:05:09.677Z,12.52
2022-12-02T08:07:36.725Z,11.82
2022-12-02T08:10:04.360Z,12.98
2022-12-02T08:12:31.321Z,12.45
2022-12-02T08:14:58.328Z,11.25
2022-12-02T08:17:25.375Z,12.02
2022-12-02T08:19:52.433Z,11.65
2022-12-02T08:22:19.390Z,11.10
2022-12-02T08:24:46.304Z,11.95
2022-12-02T08:27:13.336Z,12.23
2022-12-02T08:29:40.350Z,11.57
2022-12-02T08:32:07.319Z,12.00
2022-12-02T08:34:34.305Z,12.30
2022-12-02T08:37:01.411Z,11.52
2022-12-02T08:39:28.506Z,10.98
2022-12-02T08:41:55.589Z,10.68
2022-12-02T08:44:22.566Z,10.95
2022-12-02T08:46:54.102Z,9.82
2022-12-02T08:49:21.837Z,9.95
2022-12-02T08:51:48.848Z,10.45
2022-12-02T08:54:16.105Z,11.25
2022-12-02T08:56:43.533Z,11.23
2022-12-02T08:59:10.564Z,10.82
2022-12-02T09:01:37.612Z,10.27
2022-12-02T09:04:04.916Z,10.75
2022-12-02T09:06:36.078Z,11.93
2022-12-02T09:09:05.372Z,11.20
2022-12-02T09:11:32.869Z,11.60
2022-12-02T09:13:59.835Z,11.18
2022-12-02T09:16:26.861Z,12.70
2022-12-02T09:18:55.979Z,13.07
2022-12-02T09:21:23.366Z,12.95
2022-12-02T09:23:51.055Z,11.27
2022-12-02T09:26:18.505Z,11.55
2022-12-02T09:28:46.155Z,13.35
2022-12-02T09:31:13.592Z,11.77
2022-12-02T09:33:40.606Z,12.25
2022-12-02T09:36:07.853Z,12.73
2022-12-02T09:38:35.041Z,12.43
2022-12-02T09:41:02.244Z,12.50
2022-12-02T09:43:29.546Z,12.73
2022-12-02T09:45:57.875Z,12.70
2022-12-02T09:48:25.549Z,10.88
2022-12-02T09:50:53.225Z,12.87
2022-12-02T09:53:21.204Z,12.80
2022-12-02T09:55:48.280Z,11.80
2022-12-02T09:58:20.385Z,12.48
2022-12-02T10:00:50.649Z,12.55
2022-12-02T10:03:20.925Z,12.88
2022-12-02T10:05:48.094Z,12.35
2022-12-02T10:08:26.001Z,12.13
2022-12-02T10:10:56.814Z,12.48
2022-12-02T10:13:27.086Z,12.98
2022-12-02T10:15:54.754Z,12.23
2022-12-02T10:18:28.865Z,12.07
2022-12-02T10:20:56.726Z,10.95
2022-12-02T10:23:28.917Z,11.23
2022-12-02T10:26:07.754Z,10.98
2022-12-02T10:28:37.682Z,11.80
2022-12-02T10:31:13.261Z,11.52
2022-12-02T10:33:51.624Z,11.82
2022-12-02T10:36:38.453Z,12.63
2022-12-02T10:39:17.208Z,13.07
2022-12-02T10:41:44.319Z,12.95
2022-12-02T10:44:20.161Z,14.90
2022-12-02T10:46:47.911Z,12.95
2022-12-02T10:49:35.182Z,15.13
2022-12-02T10:52:10.656Z,14.65
2022-12-02T10:54:44.133Z,16.42
2022-12-02T10:57:16.866Z,13.98
2022-12-02T10:59:43.805Z,13.68
2022-12-02T11:02:24.849Z,14.15
2022-12-02T11:04:52.694Z,13.73
2022-12-02T11:07:23.228Z,13.98
2022-12-02T11:09:54.676Z,13.00
2022-12-02T11:12:38.517Z,13.35
2022-12-02T11:15:26.103Z,14.18
2022-12-02T11:17:53.251Z,14.03
2022-12-02T11:20:36.102Z,14.65
2022-12-02T11:23:22.944Z,14.50
2022-12-02T11:26:02.904Z,15.13
2022-12-02T11:28:29.790Z,14.60
2022-12-02T11:31:11.621Z,14.25
2022-12-02T11:34:05.723Z,14.90
2022-12-02T11:36:34.877Z,15.82
2022-12-02T11:39:09.769Z,14.55
2022-12-02T11:41:48.895Z,14.30
2022-12-02T11:44:29.848Z,15.25
2022-12-02T11:46:59.830Z,15.25
2022-12-02T11:49:45.856Z,16.08
2022-12-02T11:52:16.907Z,15.73
2022-12-02T11:55:11.743Z,15.40
2022-12-02T11:57:57.231Z,14.85
2022-12-02T12:00:37.574Z,13.52
2022-12-02T12:03:08.186Z,14.20
2022-12-02T12:05:35.722Z,13.93
2022-12-02T12:08:03.659Z,15.20
2022-12-02T12:10:36.835Z,14.70
2022-12-02T12:13:35.667Z,14.98
2022-12-02T12:16:04.313Z,15.68
2022-12-02T12:18:38.323Z,15.48
2022-12-02T12:21:06.289Z,15.02
2022-12-02T12:23:45.150Z,15.93
2022-12-02T12:26:33.086Z,14.45
2022-12-02T12:29:06.261Z,14.98
2022-12-02T12:31:38.068Z,14.30
2022-12-02T12:34:06.207Z,15.43
2022-12-02T12:36:33.115Z,16.15
2022-12-02T12:39:00.278Z,16.00
2022-12-02T12:41:58.091Z,15.55
2022-12-02T12:44:14.313Z,16.40
2022-12-02T12:46:41.436Z,16.38
2022-12-02T12:49:08.562Z,16.13
2022-12-02T12:51:35.564Z,17.77
2022-12-02T12:54:02.533Z,17.02
2022-12-02T12:56:29.535Z,16.73
2022-12-02T12:58:56.452Z,15.85
2022-12-02T13:01:25.180Z,16.52
2022-12-02T13:03:52.580Z,16.95
2022-12-02T13:06:20.874Z,16.48
2022-12-02T13:08:47.890Z,17.17
2022-12-02T13:11:14.914Z,17.77
2022-12-02T13:13:43.792Z,16.05
2022-12-02T13:16:10.857Z,16.73
2022-12-02T13:18:37.881Z,17.67
2022-12-02T13:21:06.642Z,17.60
2022-12-02T13:23:33.597Z,16.83
2022-12-02T13:26:00.556Z,18.48
2022-12-02T13:28:27.540Z,16.55
2022-12-02T13:30:56.262Z,16.45
2022-12-02T13:33:23.309Z,16.83
2022-12-02T13:35:50.221Z,17.05
2022-12-02T13:38:17.156Z,16.80
2022-12-02T13:40:49.068Z,18.58
2022-12-02T13:43:18.883Z,17.73
2022-12-02T13:45:45.862Z,17.23
2022-12-02T13:48:13.559Z,17.10
2022-12-02T13:50:40.753Z,18.30
2022-12-02T13:53:07.819Z,17.73
2022-12-02T13:55:34.810Z,17.67
2022-12-02T13:58:01.706Z,17.90
2022-12-02T14:00:28.775Z,17.55
2022-12-02T14:02:55.812Z,17.40
2022-12-02T14:05:22.878Z,17.20
2022-12-02T14:07:50.084Z,17.98
2022-12-02T14:10:17.322Z,17.75
2022-12-02T14:12:44.510Z,17.70
2022-12-02T14:15:11.591Z,18.00
2022-12-02T14:17:38.638Z,17.40
2022-12-02T14:20:06.509Z,18.13
2022-12-02T14:22:33.874Z,18.40
2022-12-02T14:25:01.014Z,17.92
2022-12-02T14:27:27.952Z,17.98
2022-12-02T14:29:55.005Z,18.40
2022-12-02T14:32:21.950Z,19.00
2022-12-02T14:34:48.960Z,18.67
2022-12-02T14:37:16.015Z,18.95
2022-12-02T14:39:43.001Z,19.23
2022-12-02T14:42:10.258Z,17.58
2022-12-02T14:44:37.388Z,19.15
2022-12-02T14:47:04.507Z,18.88
2022-12-02T14:49:39.403Z,18.20
2022-12-02T14:52:07.023Z,18.58
2022-12-02T14:54:34.063Z,19.70
2022-12-02T14:57:01.026Z,20.00
2022-12-02T14:59:27.973Z,18.30
2022-12-02T15:01:55.206Z,18.30
2022-12-02T15:04:22.464Z,18.25
2022-12-02T15:06:49.462Z,18.98
2022-12-02T15:09:16.442Z,18.90
2022-12-02T15:11:43.462Z,19.00
2022-12-02T15:14:10.722Z,19.58
2022-12-02T15:16:37.987Z,20.52
2022-12-02T15:19:04.977Z,18.70
2022-12-02T15:21:31.929Z,19.98
2022-12-02T15:23:58.946Z,19.15
2022-12-02T15:26:25.899Z,19.88
2022-12-02T15:28:52.889Z,19.02
2022-12-02T15:31:19.936Z,19.60
2022-12-02T15:33:47.287Z,19.45
2022-12-02T15:36:14.605Z,19.73
2022-12-02T15:38:41.913Z,20.23
2022-12-02T15:41:09.298Z,20.67
2022-12-02T15:43:36.277Z,19.15
2022-12-02T15:46:03.223Z,19.55
2022-12-02T15:48:30.235Z,19.02
2022-12-02T15:50:58.348Z,18.10
2022-12-02T15:53:25.297Z,19.30
2022-12-02T15:55:52.538Z,19.67
2022-12-02T15:58:19.955Z,20.17
2022-12-02T16:00:47.131Z,21.13
2022-12-02T16:03:14.181Z,19.90
2022-12-02T16:05:41.152Z,20.15
2022-12-02T16:08:08.610Z,21.40
2022-12-02T16:10:35.700Z,21.65
2022-12-02T16:13:02.731Z,21.58
2022-12-02T16:15:29.750Z,20.92
2022-12-02T16:17:56.939Z,21.98
2022-12-02T16:20:23.965Z,22.58
2022-12-02T16:22:51.035Z,22.42
2022-12-02T16:25:18.165Z,22.52
2022-12-02T16:27:45.108Z,23.60
2022-12-02T16:30:12.959Z,22.75
2022-12-02T16:32:39.983Z,23.40
2022-12-02T16:35:07.498Z,22.40
2022-12-02T16:37:34.615Z,21.90
2022-12-02T16:40:01.774Z,22.10
2022-12-02T16:42:28.805Z,21.88
2022-12-02T16:44:56.322Z,23.23
2022-12-02T16:47:23.831Z,24.45
2022-12-02T16:49:51.248Z,23.27
2022-12-02T16:52:18.704Z,21.45
2022-12-02T16:54:45.773Z,22.42
2022-12-02T16:57:12.863Z,22.75
2022-12-02T16:59:39.837Z,22.42
2022-12-02T17:02:07.119Z,22.67
2022-12-02T17:04:34.068Z,21.25
2022-12-02T17:07:01.057Z,19.67
2022-12-02T17:09:29.970Z,20.80
2022-12-02T17:11:58.045Z,19.70
2022-12-02T17:14:25.148Z,21.80
2022-12-02T17:16:52.179Z,21.83
2022-12-02T17:19:19.204Z,24.60
2022-12-02T17:21:46.195Z,29.52
2022-12-02T17:24:13.221Z,32.35
2022-12-02T17:26:40.159Z,33.30
2022-12-02T17:29:07.194Z,29.73
2022-12-02T17:31:34.231Z,27.35
2022-12-02T17:34:03.853Z,24.77
2022-12-02T17:36:30.797Z,24.42
2022-12-02T17:38:57.894Z,25.17
2022-12-02T17:41:25.461Z,23.15
2022-12-02T17:43:53.439Z,23.55
2022-12-02T17:46:20.940Z,22.90
2022-12-02T17:48:49.134Z,22.92
2022-12-02T17:51:16.856Z,22.63
2022-12-02T17:53:44.319Z,23.27
2022-12-02T17:56:11.855Z,20.98
2022-12-02T17:58:38.959Z,21.83
2022-12-02T18:01:11.741Z,23.23
2022-12-02T18:03:40.080Z,21.83
2022-12-02T18:06:07.883Z,22.17
2022-12-02T18:08:35.541Z,22.35
2022-12-02T18:11:03.193Z,21.17
2022-12-02T18:13:30.387Z,22.10
2022-12-02T18:15:57.669Z,20.95
2022-12-02T18:18:24.716Z,21.92
2022-12-02T18:20:51.654Z,21.65
2022-12-02T18:23:18.606Z,22.45
2022-12-02T18:25:46.070Z,21.83
2022-12-02T18:28:13.054Z,22.45
2022-12-02T18:30:40.043Z,21.63
2022-12-02T18:33:07.243Z,22.92
2022-12-02T18:35:34.193Z,21.40
2022-12-02T18:38:01.404Z,22.88
2022-12-02T18:40:28.377Z,21.20
2022-12-02T18:42:55.354Z,21.10
2022-12-02T18:45:22.447Z,20.30
2022-12-02T18:47:49.418Z,20.77
2022-12-02T18:50:16.742Z,20.60
2022-12-02T18:52:43.958Z,18.92
2022-12-02T18:55:13.813Z,20.35
2022-12-02T18:57:40.974Z,20.20
2022-12-02T19:00:11.366Z,20.48
2022-12-02T19:02:38.352Z,19.88
2022-12-02T19:05:06.997Z,19.20
2022-12-02T19:07:35.838Z,18.80
2022-12-02T19:10:03.879Z,19.75
2022-12-02T19:12:30.999Z,20.88
2022-12-02T19:14:57.892Z,19.65
2022-12-02T19:17:24.837Z,19.48
2022-12-02T19:19:51.756Z,20.10
2022-12-02T19:22:18.761Z,20.63
2022-12-02T19:24:46.347Z,20.40
2022-12-02T19:27:34.398Z,20.67
2022-12-02T19:30:00.288Z,21.25
2022-12-02T19:32:27.316Z,19.98
2022-12-02T19:34:54.552Z,19.25
2022-12-02T19:37:21.719Z,19.95
2022-12-02T19:39:48.726Z,19.70
2022-12-02T19:42:15.971Z,19.25
2022-12-02T19:44:42.944Z,19.25
2022-12-02T19:47:11.368Z,18.23
2022-12-02T19:52:05.566Z,18.63
2022-12-02T19:54:32.529Z,17.73
2022-12-02T19:56:59.507Z,17.00
2022-12-02T19:59:26.596Z,17.33
2022-12-02T20:01:53.634Z,15.85
2022-12-02T20:04:40.160Z,17.80
2022-12-02T20:07:07.595Z,15.98
2022-12-02T20:09:34.540Z,14.05
2022-12-02T20:12:01.529Z,13.82
2022-12-02T20:14:28.985Z,13.60
2022-12-02T20:16:56.036Z,13.50
2022-12-02T20:19:23.137Z,12.73
2022-12-02T20:21:50.132Z,12.88
2022-12-02T20:24:17.368Z,13.15
2022-12-02T20:26:45.103Z,12.77
2022-12-02T20:29:12.088Z,13.13
2022-12-02T20:31:39.084Z,13.15
2022-12-02T20:34:07.304Z,14.85
2022-12-02T20:36:34.451Z,13.30
2022-12-02T20:39:01.434Z,13.77
2022-12-02T20:41:28.603Z,12.40
2022-12-02T20:43:55.533Z,13.35
2022-12-02T20:46:23.672Z,12.82
2022-12-02T20:48:50.908Z,12.95
2022-12-02T20:51:17.829Z,12.70
2022-12-02T20:53:44.719Z,13.20
2022-12-02T20:56:11.657Z,12.55
2022-12-02T20:58:38.720Z,13.38
2022-12-02T21:01:11.962Z,14.18
2022-12-02T21:03:39.593Z,13.20
2022-12-02T21:06:07.117Z,12.95
2022-12-02T21:08:34.352Z,12.70
2022-12-02T21:11:01.367Z,11.75
2022-12-02T21:13:28.801Z,12.68
2022-12-02T21:15:56.204Z,12.18
2022-12-02T21:18:25.125Z,12.05
2022-12-02T21:20:52.658Z,11.65
2022-12-02T21:23:19.647Z,11.82
2022-12-02T21:25:46.595Z,12.88
2022-12-02T21:28:13.599Z,12.75
2022-12-02T21:30:41.424Z,12.57
2022-12-02T21:33:08.395Z,12.70
2022-12-02T21:35:35.383Z,12.52
2022-12-02T21:38:02.273Z,13.65
2022-12-02T21:40:29.225Z,13.13
2022-12-02T21:42:56.130Z,12.68
2022-12-02T21:45:23.136Z,12.60
2022-12-02T21:47:50.165Z,10.63
2022-12-02T21:50:17.181Z,10.95
2022-12-02T21:52:44.086Z,11.65
2022-12-02T21:55:11.129Z,12.05
2022-12-02T21:57:38.253Z,11.82
2022-12-02T22:00:06.703Z,11.27
2022-12-02T22:02:39.809Z,11.57
2022-12-02T22:05:07.262Z,10.80
2022-12-02T22:07:43.792Z,11.77
2022-12-02T22:10:23.674Z,12.18
2022-12-02T22:12:51.568Z,12.70
2022-12-02T22:15:21.417Z,12.57
2022-12-02T22:17:48.476Z,12.43
2022-12-02T22:20:18.082Z,13.02
2022-12-02T22:22:45.063Z,12.32
2022-12-02T22:25:12.187Z,11.70
2022-12-02T22:27:39.248Z,11.80
2022-12-02T22:30:09.600Z,11.13
2022-12-02T22:32:36.634Z,10.23
2022-12-02T22:35:04.397Z,10.35
2022-12-02T22:37:31.399Z,10.00
2022-12-02T22:39:58.333Z,9.88
2022-12-02T22:42:25.416Z,9.65
2022-12-02T22:44:52.945Z,9.02
2022-12-02T22:47:20.130Z,9.17
2022-12-02T22:49:47.502Z,8.63
2022-12-02T22:52:14.443Z,9.23
2022-12-02T22:54:41.630Z,8.38
2022-12-02T22:57:08.555Z,9.45
2022-12-02T22:59:35.494Z,8.10
2022-12-02T23:02:02.522Z,9.02
2022-12-02T23:04:29.489Z,8.82
2022-12-02T23:06:56.438Z,8.73
2022-12-02T23:09:23.347Z,9.45
2022-12-02T23:11:50.272Z,9.15
2022-12-02T23:14:17.236Z,8.48
2022-12-02T23:16:44.505Z,8.05
2022-12-02T23:19:11.615Z,8.15
2022-12-02T23:21:38.511Z,8.60
2022-12-02T23:24:05.988Z,8.30
2022-12-02T23:26:32.984Z,8.10
2022-12-02T23:29:06.435Z,7.40
2022-12-02T23:31:33.721Z,8.45
2022-12-02T23:34:00.744Z,8.32
2022-12-02T23:36:31.923Z,7.68
2022-12-02T23:39:01.806Z,7.50
2022-12-02T23:41:28.716Z,7.90
2022-12-02T23:43:55.687Z,8.13
2022-12-02T23:46:22.758Z,7.60
2022-12-02T23:48:49.840Z,8.70
2022-12-02T23:51:17.599Z,8.68
2022-12-02T23:53:46.861Z,8.35
2022-12-02T23:56:13.808Z,8.13
2022-12-02T23:58:40.831Z,7.80
